createdAt,value
2022-10-13T00:02:50.098Z,92.58
2022-10-13T00:05:51.795Z,92.60
2022-10-13T00:08:54.913Z,92.65
2022-10-13T00:11:57.240Z,92.43
2022-10-13T00:14:59.249Z,92.54
2022-10-13T00:18:02.906Z,92.50
2022-10-13T00:21:07.150Z,92.68
2022-10-13T00:24:11.855Z,92.69
2022-10-13T00:27:13.620Z,92.68
2022-10-13T00:30:15.478Z,93.57
2022-10-13T00:33:18.452Z,93.58
2022-10-13T00:36:20.355Z,93.85
2022-10-13T00:39:23.302Z,93.84
2022-10-13T00:42:26.398Z,93.80
2022-10-13T00:45:29.653Z,93.93
2022-10-13T00:48:31.299Z,93.91
2022-10-13T00:51:34.804Z,93.70
2022-10-13T00:54:37.807Z,93.87
2022-10-13T00:57:40.265Z,93.86
2022-10-13T01:00:43.587Z,93.99
2022-10-13T01:03:45.627Z,94.60
2022-10-13T01:06:47.400Z,94.56
2022-10-13T01:09:50.790Z,94.67
2022-10-13T01:12:58.191Z,94.92
2022-10-13T01:16:01.606Z,94.82
2022-10-13T01:19:11.335Z,94.97
2022-10-13T01:22:19.791Z,94.93
2022-10-13T01:25:34.580Z,94.88
2022-10-13T01:28:50.121Z,95.17
2022-10-13T01:31:57.510Z,95.06
2022-10-13T01:35:03.760Z,95.15
2022-10-13T01:38:08.426Z,95.18
2022-10-13T01:41:13.928Z,95.11
2022-10-13T01:44:19.789Z,95.01
2022-10-13T01:47:23.938Z,94.74
2022-10-13T01:50:26.105Z,95.20
2022-10-13T01:53:29.001Z,94.85
2022-10-13T01:56:30.810Z,95.00
2022-10-13T01:59:35.362Z,95.05
2022-10-13T02:02:41.901Z,94.95
2022-10-13T02:05:49.408Z,95.22
2022-10-13T02:08:56.219Z,95.30
2022-10-13T02:11:59.936Z,95.70
2022-10-13T02:15:04.777Z,95.53
2022-10-13T02:18:09.642Z,95.52
2022-10-13T02:21:11.675Z,95.56
2022-10-13T02:24:13.984Z,95.69
2022-10-13T02:27:16.319Z,95.77
2022-10-13T02:30:21.936Z,95.73
2022-10-13T02:33:27.280Z,95.96
2022-10-13T02:36:29.177Z,96.04
2022-10-13T02:39:30.732Z,95.89
2022-10-13T02:42:32.505Z,96.24
2022-10-13T02:45:34.156Z,96.50
2022-10-13T02:48:38.657Z,95.99
2022-10-13T02:51:40.703Z,95.97
2022-10-13T02:54:42.908Z,95.99
2022-10-13T02:57:44.617Z,96.31
2022-10-13T03:00:46.311Z,96.30
2022-10-13T03:03:52.104Z,96.45
2022-10-13T03:06:53.891Z,96.58
2022-10-13T03:09:55.601Z,96.74
2022-10-13T03:12:57.493Z,96.49
2022-10-13T03:15:59.287Z,96.63
2022-10-13T03:19:02.474Z,96.61
2022-10-13T03:22:04.208Z,96.77
2022-10-13T03:25:06.644Z,96.81
2022-10-13T03:28:08.294Z,96.86
2022-10-13T03:31:14.553Z,96.79
2022-10-13T03:34:17.806Z,96.91
2022-10-13T03:37:19.490Z,97.03
2022-10-13T03:40:25.124Z,97.00
2022-10-13T03:43:26.778Z,97.35
2022-10-13T03:46:29.573Z,97.10
2022-10-13T03:49:32.579Z,97.06
2022-10-13T03:52:34.315Z,97.15
2022-10-13T03:55:35.855Z,97.19
2022-10-13T03:58:37.472Z,97.03
2022-10-13T04:01:39.707Z,97.13
2022-10-13T04:04:42.695Z,97.08
2022-10-13T04:07:44.492Z,97.07
2022-10-13T04:10:46.136Z,97.04
2022-10-13T04:13:48.924Z,96.97
2022-10-13T04:16:50.586Z,97.01
2022-10-13T04:19:55.704Z,97.23
2022-10-13T04:22:57.360Z,96.98
2022-10-13T04:25:59.059Z,97.09
2022-10-13T04:29:02.849Z,97.01
2022-10-13T04:32:04.726Z,96.95
2022-10-13T04:35:08.216Z,97.18
2022-10-13T04:38:09.947Z,97.22
2022-10-13T04:41:14.786Z,97.09
2022-10-13T04:44:16.773Z,97.17
2022-10-13T04:47:18.550Z,97.15
2022-10-13T04:50:21.812Z,97.16
2022-10-13T04:53:24.218Z,97.33
2022-10-13T04:56:26.211Z,97.20
2022-10-13T04:59:27.942Z,97.38
2022-10-13T05:02:29.809Z,97.38
2022-10-13T05:05:35.085Z,97.52
2022-10-13T05:08:37.628Z,97.40
2022-10-13T05:11:41.312Z,97.56
2022-10-13T05:14:42.886Z,97.45
2022-10-13T05:17:45.116Z,97.43
2022-10-13T05:20:48.490Z,97.27
2022-10-13T05:23:53.915Z,97.60
2022-10-13T05:26:55.592Z,97.48
2022-10-13T05:30:04.954Z,97.77
2022-10-13T05:33:06.489Z,97.75
2022-10-13T05:36:10.892Z,97.94
2022-10-13T05:39:13.279Z,97.79
2022-10-13T05:42:14.929Z,97.83
2022-10-13T05:45:18.038Z,97.77
2022-10-13T05:48:19.790Z,97.75
2022-10-13T05:51:24.014Z,97.90
2022-10-13T05:54:30.378Z,98.00
2022-10-13T05:57:33.388Z,97.95
2022-10-13T06:00:35.128Z,97.62
2022-10-13T06:03:37.265Z,97.65
2022-10-13T06:06:40.399Z,97.65
2022-10-13T06:09:51.350Z,97.77
2022-10-13T06:12:52.970Z,97.86
2022-10-13T06:15:55.656Z,97.55
2022-10-13T06:18:57.280Z,97.53
2022-10-13T06:22:03.593Z,97.77
2022-10-13T06:25:09.880Z,97.81
2022-10-13T06:28:13.268Z,97.84
2022-10-13T06:31:14.984Z,97.65
2022-10-13T06:34:16.663Z,97.95
2022-10-13T06:37:24.705Z,98.03
2022-10-13T06:40:28.726Z,97.77
2022-10-13T06:43:38.726Z,97.73
2022-10-13T06:46:42.024Z,97.91
2022-10-13T06:49:44.354Z,97.73
2022-10-13T06:52:50.462Z,97.79
2022-10-13T06:55:58.198Z,97.89
2022-10-13T06:58:59.916Z,97.75
2022-10-13T07:02:01.578Z,98.02
2022-10-13T07:05:03.823Z,97.84
2022-10-13T07:08:07.187Z,97.86
2022-10-13T07:11:14.526Z,97.81
2022-10-13T07:14:17.764Z,97.87
2022-10-13T07:17:19.491Z,97.88
2022-10-13T07:20:21.491Z,97.96
2022-10-13T07:23:24.671Z,97.81
2022-10-13T07:26:28.232Z,97.76
2022-10-13T07:29:29.780Z,97.67
2022-10-13T07:32:31.998Z,97.73
2022-10-13T07:35:33.574Z,97.64
2022-10-13T07:38:36.688Z,97.72
2022-10-13T07:41:38.462Z,97.64
2022-10-13T07:44:40.218Z,97.51
2022-10-13T07:47:42.056Z,97.32
2022-10-13T07:50:43.598Z,97.25
2022-10-13T07:53:47.048Z,97.08
2022-10-13T07:56:51.048Z,97.13
2022-10-13T07:59:52.771Z,97.00
2022-10-13T08:02:54.330Z,96.83
2022-10-13T08:05:58.603Z,96.87
2022-10-13T08:09:02.026Z,96.84
2022-10-13T08:12:03.842Z,96.64
2022-10-13T08:15:06.662Z,96.63
2022-10-13T08:18:09.090Z,96.46
2022-10-13T08:21:53.338Z,96.75
2022-10-13T08:24:36.546Z,96.55
2022-10-13T08:27:50.588Z,96.63
2022-10-13T08:30:54.312Z,96.75
2022-10-13T08:33:56.295Z,96.64
2022-10-13T08:37:00.036Z,96.50
2022-10-13T08:40:06.499Z,96.75
2022-10-13T08:43:08.874Z,96.83
2022-10-13T08:46:11.761Z,96.76
2022-10-13T08:49:16.593Z,96.78
2022-10-13T08:52:20.190Z,97.04
2022-10-13T08:55:29.487Z,96.83
2022-10-13T08:58:33.501Z,97.05
2022-10-13T09:01:36.582Z,96.14
2022-10-13T09:04:41.608Z,95.58
2022-10-13T09:07:46.117Z,95.31
2022-10-13T09:10:50.143Z,95.07
2022-10-13T09:13:54.314Z,94.83
2022-10-13T09:16:57.909Z,93.76
2022-10-13T09:20:00.730Z,93.49
2022-10-13T09:23:03.840Z,93.29
2022-10-13T09:26:16.260Z,92.42
2022-10-13T09:29:19.174Z,92.86
2022-10-13T09:32:24.004Z,92.26
2022-10-13T09:35:25.936Z,92.26
2022-10-13T09:38:28.115Z,91.79
2022-10-13T09:41:31.432Z,91.66
2022-10-13T09:44:33.371Z,91.87
2022-10-13T09:47:35.135Z,91.61
2022-10-13T09:50:36.937Z,91.20
2022-10-13T09:53:40.183Z,90.02
2022-10-13T09:56:46.450Z,89.72
2022-10-13T09:59:52.958Z,88.67
2022-10-13T10:02:57.890Z,88.54
2022-10-13T10:06:00.649Z,88.42
2022-10-13T10:09:05.584Z,87.54
2022-10-13T10:12:12.586Z,87.73
2022-10-13T10:15:20.905Z,87.50
2022-10-13T10:18:31.411Z,86.84
2022-10-13T10:21:37.286Z,86.57
2022-10-13T10:24:44.412Z,85.74
2022-10-13T10:27:52.635Z,85.14
2022-10-13T10:30:58.781Z,85.80
2022-10-13T10:34:07.892Z,84.27
2022-10-13T10:37:22.861Z,84.75
2022-10-13T10:40:32.428Z,85.00
2022-10-13T10:43:52.121Z,85.21
2022-10-13T10:46:57.465Z,84.65
2022-10-13T10:50:01.903Z,84.14
2022-10-13T10:53:06.491Z,84.32
2022-10-13T10:56:14.045Z,83.86
2022-10-13T10:59:26.528Z,84.41
2022-10-13T11:02:42.664Z,83.78
2022-10-13T11:06:00.806Z,82.39
2022-10-13T11:09:03.923Z,82.40
2022-10-13T11:12:22.495Z,82.71
2022-10-13T11:15:25.202Z,82.04
2022-10-13T11:18:45.790Z,81.14
2022-10-13T11:22:06.427Z,81.43
2022-10-13T11:25:36.536Z,81.01
2022-10-13T11:28:47.909Z,81.16
2022-10-13T11:31:51.410Z,81.38
2022-10-13T11:34:57.658Z,81.56
2022-10-13T11:38:20.980Z,81.49
2022-10-13T11:41:27.357Z,81.63
2022-10-13T11:44:33.734Z,81.91
2022-10-13T11:47:49.016Z,82.00
2022-10-13T11:50:57.729Z,82.18
2022-10-13T11:54:05.518Z,82.10
2022-10-13T11:57:18.799Z,82.46
2022-10-13T12:00:20.512Z,82.39
2022-10-13T12:03:23.807Z,82.90
2022-10-13T12:06:33.201Z,82.65
2022-10-13T12:09:36.733Z,82.90
2022-10-13T12:12:45.989Z,82.88
2022-10-13T12:15:47.569Z,83.37
2022-10-13T12:18:49.248Z,82.17
2022-10-13T12:21:51.833Z,81.15
2022-10-13T12:24:56.938Z,79.94
2022-10-13T12:28:01.109Z,79.40
2022-10-13T12:31:03.338Z,79.30
2022-10-13T12:34:05.169Z,79.52
2022-10-13T12:37:11.842Z,79.36
2022-10-13T12:40:14.236Z,78.51
2022-10-13T12:43:19.107Z,78.76
2022-10-13T12:46:36.923Z,79.34
2022-10-13T12:49:39.046Z,78.44
2022-10-13T12:52:40.608Z,78.10
2022-10-13T12:55:47.713Z,77.68
2022-10-13T12:58:50.833Z,77.75
2022-10-13T13:01:53.344Z,78.67
2022-10-13T13:04:55.527Z,78.94
2022-10-13T13:07:57.312Z,78.37
2022-10-13T13:11:00.168Z,78.01
2022-10-13T13:14:16.728Z,78.53
2022-10-13T13:20:47.703Z,78.95
2022-10-13T13:23:53.076Z,78.06
2022-10-13T13:26:55.919Z,78.56
2022-10-13T13:29:57.612Z,79.03
2022-10-13T13:33:00.563Z,78.89
2022-10-13T13:36:02.471Z,78.15
2022-10-13T13:39:06.809Z,77.56
2022-10-13T13:42:14.185Z,77.30
2022-10-13T13:45:16.553Z,77.28
2022-10-13T13:48:19.548Z,77.52
2022-10-13T13:51:21.385Z,77.57
2022-10-13T13:54:23.004Z,77.79
2022-10-13T13:57:24.631Z,77.95
2022-10-13T14:00:26.165Z,78.21
2022-10-13T14:03:30.480Z,78.26
2022-10-13T14:06:32.274Z,78.19
2022-10-13T14:09:34.321Z,78.76
2022-10-13T14:12:39.350Z,78.53
2022-10-13T14:15:40.994Z,78.60
2022-10-13T14:18:44.155Z,78.70
2022-10-13T14:21:46.156Z,78.71
2022-10-13T14:24:48.001Z,78.69
2022-10-13T14:27:49.863Z,78.31
2022-10-13T14:30:51.639Z,78.53
2022-10-13T14:33:54.941Z,78.68
2022-10-13T14:36:56.997Z,79.04
2022-10-13T14:39:58.729Z,78.74
2022-10-13T14:43:00.413Z,78.76
2022-10-13T14:46:02.801Z,79.25
2022-10-13T14:49:05.939Z,78.76
2022-10-13T14:52:09.038Z,78.90
2022-10-13T14:55:16.659Z,79.00
2022-10-13T14:58:18.702Z,79.62
2022-10-13T15:01:20.696Z,79.53
2022-10-13T15:04:24.334Z,79.77
2022-10-13T15:07:26.275Z,79.73
2022-10-13T15:10:28.051Z,79.83
2022-10-13T15:13:29.812Z,80.17
2022-10-13T15:16:33.682Z,80.71
2022-10-13T15:19:36.790Z,80.66
2022-10-13T15:22:38.419Z,80.81
2022-10-13T15:25:40.853Z,80.97
2022-10-13T15:28:44.128Z,81.07
2022-10-13T15:31:45.700Z,81.22
2022-10-13T15:34:48.643Z,81.40
2022-10-13T15:37:50.298Z,81.61
2022-10-13T15:40:52.146Z,81.87
2022-10-13T15:43:53.858Z,82.16
2022-10-13T15:47:07.875Z,82.30
2022-10-13T15:50:11.862Z,82.88
2022-10-13T15:53:15.854Z,83.11
2022-10-13T15:56:17.567Z,83.26
2022-10-13T15:59:19.288Z,83.53
2022-10-13T16:02:22.074Z,83.67
2022-10-13T16:05:25.651Z,84.09
2022-10-13T16:08:27.638Z,84.35
2022-10-13T16:11:29.477Z,84.54
2022-10-13T16:14:31.066Z,84.82
2022-10-13T16:17:33.110Z,85.12
2022-10-13T16:20:37.929Z,84.73
2022-10-13T16:23:39.559Z,84.55
2022-10-13T16:26:41.205Z,84.70
2022-10-13T16:29:42.760Z,83.75
2022-10-13T16:32:44.392Z,83.46
2022-10-13T16:35:47.408Z,84.00
2022-10-13T16:38:49.986Z,85.77
2022-10-13T16:41:52.331Z,87.71
2022-10-13T16:44:54.060Z,89.21
2022-10-13T16:47:55.638Z,90.01
2022-10-13T16:50:58.824Z,91.10
2022-10-13T16:54:04.233Z,91.39
2022-10-13T16:57:06.230Z,91.52
2022-10-13T17:00:12.763Z,91.92
2022-10-13T17:03:14.424Z,92.13
2022-10-13T17:06:18.070Z,92.55
2022-10-13T17:09:19.845Z,92.94
2022-10-13T17:12:21.404Z,93.38
2022-10-13T17:15:23.319Z,93.21
2022-10-13T17:18:25.216Z,93.82
2022-10-13T17:21:28.512Z,93.95
2022-10-13T17:24:30.742Z,93.95
2022-10-13T17:27:36.608Z,94.01
2022-10-13T17:30:38.243Z,94.18
2022-10-13T17:33:40.838Z,94.40
2022-10-13T17:36:44.034Z,94.41
2022-10-13T17:39:45.917Z,94.63
2022-10-13T17:42:47.667Z,94.65
2022-10-13T17:45:49.336Z,94.78
2022-10-13T17:48:50.998Z,94.83
2022-10-13T17:51:55.211Z,94.77
2022-10-13T17:54:56.882Z,94.80
2022-10-13T17:57:58.378Z,94.65
2022-10-13T18:01:12.848Z,94.83
2022-10-13T18:04:17.191Z,94.75
2022-10-13T18:07:20.493Z,94.75
2022-10-13T18:10:22.251Z,94.87
2022-10-13T18:13:23.812Z,94.89
2022-10-13T18:16:25.525Z,94.81
2022-10-13T18:19:27.030Z,94.95
2022-10-13T18:22:30.017Z,94.93
2022-10-13T18:25:33.997Z,94.90
2022-10-13T18:28:36.630Z,94.75
2022-10-13T18:31:39.519Z,95.05
2022-10-13T18:34:41.072Z,94.99
2022-10-13T18:37:49.182Z,95.26
2022-10-13T18:40:50.935Z,95.22
2022-10-13T18:43:55.670Z,95.49
2022-10-13T18:46:57.439Z,95.62
2022-10-13T18:49:59.934Z,96.09
2022-10-13T18:53:03.282Z,96.22
2022-10-13T18:56:05.670Z,96.57
2022-10-13T18:59:08.348Z,96.72
2022-10-13T19:02:13.034Z,97.00
2022-10-13T19:05:17.832Z,97.20
2022-10-13T19:08:20.904Z,97.30
2022-10-13T19:11:22.904Z,97.24
2022-10-13T19:14:24.643Z,97.30
2022-10-13T19:17:26.303Z,97.24
2022-10-13T19:20:28.183Z,97.55
2022-10-13T19:23:31.185Z,97.57
2022-10-13T19:26:33.880Z,97.52
2022-10-13T19:29:35.577Z,97.74
2022-10-13T19:32:38.476Z,97.87
2022-10-13T19:35:40.892Z,98.16
2022-10-13T19:38:45.168Z,98.35
2022-10-13T19:41:50.867Z,98.36
2022-10-13T19:44:52.730Z,98.61
2022-10-13T19:47:54.289Z,98.64
2022-10-13T19:50:56.023Z,98.56
2022-10-13T19:53:59.106Z,98.93
2022-10-13T19:57:00.699Z,98.72
2022-10-13T20:00:02.518Z,98.98
2022-10-13T20:03:04.853Z,98.89
2022-10-13T20:06:06.856Z,99.00
2022-10-13T20:09:09.997Z,98.76
2022-10-13T20:12:11.937Z,98.91
2022-10-13T20:15:14.236Z,98.88
2022-10-13T20:18:15.954Z,98.88
2022-10-13T20:21:18.042Z,98.81
2022-10-13T20:24:23.279Z,99.00
2022-10-13T20:27:25.089Z,98.88
2022-10-13T20:30:26.685Z,99.16
2022-10-13T20:33:28.689Z,99.29
2022-10-13T20:36:34.709Z,99.09
2022-10-13T20:39:41.072Z,99.14
2022-10-13T20:42:43.065Z,99.48
2022-10-13T20:45:44.926Z,99.32
2022-10-13T20:52:08.803Z,99.68
2022-10-13T20:55:12.129Z,99.38
2022-10-13T20:58:13.679Z,99.82
2022-10-13T21:01:15.472Z,99.96
2022-10-13T21:04:17.511Z,99.93
2022-10-13T21:07:19.425Z,100.00
2022-10-13T21:10:22.563Z,100.00
2022-10-13T21:13:25.589Z,100.00
2022-10-13T21:16:28.308Z,100.00
2022-10-13T21:19:30.285Z,100.00
2022-10-13T21:22:31.867Z,100.00
2022-10-13T21:25:35.958Z,100.00
2022-10-13T21:28:38.968Z,100.00
2022-10-13T21:31:40.933Z,100.00
2022-10-13T21:34:45.658Z,100.00
2022-10-13T21:37:47.337Z,100.00
2022-10-13T21:40:53.832Z,100.00
2022-10-13T21:43:55.976Z,100.00
2022-10-13T21:46:58.286Z,100.00
2022-10-13T21:50:00.209Z,100.00
2022-10-13T21:53:01.847Z,100.00
2022-10-13T21:56:07.091Z,100.00
2022-10-13T21:59:10.695Z,100.00
2022-10-13T22:02:12.391Z,100.00
2022-10-13T22:05:14.357Z,100.00
2022-10-13T22:08:16.017Z,100.00
2022-10-13T22:11:19.802Z,100.00
2022-10-13T22:14:21.559Z,100.00
2022-10-13T22:17:23.568Z,100.00
2022-10-13T22:20:25.533Z,100.00
2022-10-13T22:23:27.415Z,100.00
2022-10-13T22:26:31.759Z,100.00
2022-10-13T22:29:33.542Z,100.00
2022-10-13T22:32:35.238Z,100.00
2022-10-13T22:35:37.116Z,100.00
2022-10-13T22:38:41.493Z,100.00
2022-10-13T22:41:45.034Z,100.00
2022-10-13T22:44:46.858Z,100.00
2022-10-13T22:47:49.077Z,100.00
2022-10-13T22:50:50.721Z,100.00
2022-10-13T22:53:52.648Z,100.00
2022-10-13T22:56:56.072Z,100.00
2022-10-13T22:59:58.058Z,100.00
2022-10-13T23:02:59.928Z,100.00
2022-10-13T23:06:01.734Z,100.00
2022-10-13T23:09:04.538Z,100.00
2022-10-13T23:12:07.483Z,100.00
2022-10-13T23:15:09.980Z,100.00
2022-10-13T23:18:11.519Z,100.00
2022-10-13T23:21:14.149Z,100.00
2022-10-13T23:24:15.709Z,100.00
2022-10-13T23:27:21.559Z,100.00
2022-10-13T23:30:23.499Z,100.00
2022-10-13T23:33:25.539Z,100.00
2022-10-13T23:36:28.497Z,100.00
2022-10-13T23:39:30.008Z,100.00
2022-10-13T23:42:32.997Z,100.00
2022-10-13T23:45:34.504Z,100.00
2022-10-13T23:48:36.092Z,100.00
2022-10-13T23:51:37.604Z,100.00
2022-10-13T23:54:39.225Z,100.00
2022-10-13T23:57:42.153Z,100.00
